Time;durP1;ratioP1;P1;durP2;ratioP2;P2;SDS_P1;SDS_P2;PMS_P1;PMS_P2;Temp;Humidity;BMP_temperature;BMP_pressure;BME280_temperature;BME280_humidity;BME280_pressure;Samples;Min_cycle;Max_cycle;Signal;HPM_P1;HPM_P2
2022/09/04 00:00:37;;;;;;;24.63;19.38;;;15.70;99.90;;;;;;5033262;28;20041;-73
2022/09/04 00:03:22;;;;;;;27.77;20.33;;;15.70;99.90;;;;;;5032893;28;20049;-72
2022/09/04 00:05:52;;;;;;;39.28;29.75;;;15.70;99.90;;;;;;5033115;28;20049;-71
2022/09/04 00:08:45;;;;;;;20.77;14.45;;;15.70;99.90;;;;;;5015258;28;20053;-73
2022/09/04 00:11:25;;;;;;;19.95;14.15;;;15.70;99.90;;;;;;5032929;28;20037;-72
2022/09/04 00:13:59;;;;;;;18.85;14.40;;;15.70;99.90;;;;;;5033860;28;20037;-72
2022/09/04 00:16:30;;;;;;;20.55;14.48;;;15.60;99.90;;;;;;5036042;28;20045;-71
2022/09/04 00:19:03;;;;;;;19.73;13.93;;;15.60;99.90;;;;;;5037122;28;20037;-71
2022/09/04 00:21:37;;;;;;;22.42;14.25;;;15.60;99.90;;;;;;5032664;28;20091;-71
2022/09/04 00:24:09;;;;;;;19.58;14.77;;;15.60;99.90;;;;;;5032777;28;20065;-71
2022/09/04 00:26:51;;;;;;;18.45;14.20;;;15.60;99.90;;;;;;5033365;28;20045;-71
2022/09/04 00:29:29;;;;;;;17.00;14.25;;;15.60;99.90;;;;;;5033331;28;20517;-71
2022/09/04 00:32:05;;;;;;;18.05;15.15;;;15.70;99.90;;;;;;5036917;28;20045;-71
2022/09/04 00:34:40;;;;;;;;;;;15.70;99.90;;;;;;5039558;28;20042;-71
2022/09/04 00:37:12;;;;;;;21.58;14.57;;;15.70;99.90;;;;;;5036370;28;19925;-70
2022/09/04 00:39:44;;;;;;;18.35;14.35;;;15.70;99.90;;;;;;5036309;28;20065;-71
2022/09/04 00:42:25;;;;;;;20.58;14.15;;;15.80;99.90;;;;;;5035746;28;20071;-72
2022/09/04 00:45:07;;;;;;;19.67;14.52;;;15.80;99.90;;;;;;5036119;28;20477;-70
2022/09/04 00:48:01;;;;;;;17.27;13.20;;;15.90;99.90;;;;;;5036010;28;20112;-71
2022/09/04 00:50:54;;;;;;;17.52;14.50;;;15.90;99.90;;;;;;5036093;28;20551;-72
2022/09/04 00:53:46;;;;;;;21.63;13.82;;;16.00;99.90;;;;;;5029738;28;20132;-71
2022/09/04 00:56:35;;;;;;;26.13;14.57;;;16.00;99.90;;;;;;5037505;28;20052;-71
2022/09/04 00:59:15;;;;;;;18.30;13.68;;;16.00;99.90;;;;;;5037719;28;20099;-72
2022/09/04 01:01:46;;;;;;;18.35;14.65;;;16.00;99.90;;;;;;5039144;28;20045;-72
2022/09/04 01:04:30;;;;;;;17.42;14.35;;;16.00;99.90;;;;;;5037318;28;20554;-72
2022/09/04 01:07:22;;;;;;;16.13;13.73;;;16.00;99.90;;;;;;5020240;28;20107;-71
2022/09/04 01:10:22;;;;;;;18.63;13.90;;;16.00;99.90;;;;;;5036043;28;20051;-72
2022/09/04 01:12:57;;;;;;;24.50;14.85;;;16.00;99.90;;;;;;4983694;28;20136;-71
2022/09/04 01:15:34;;;;;;;16.60;14.15;;;16.00;99.90;;;;;;5035643;28;20043;-72
2022/09/04 01:18:09;;;;;;;21.90;14.40;;;16.00;99.90;;;;;;5035397;28;20053;-72
2022/09/04 01:21:00;;;;;;;18.17;14.73;;;16.00;99.90;;;;;;5035378;28;20489;-71
2022/09/04 01:24:03;;;;;;;16.83;13.77;;;16.00;99.90;;;;;;5032084;28;20520;-72
2022/09/04 01:26:40;;;;;;;20.20;14.20;;;16.00;99.90;;;;;;4984877;28;20053;-71
2022/09/04 01:29:29;;;;;;;19.10;14.65;;;16.00;99.90;;;;;;5035440;28;20041;-71
2022/09/04 01:32:04;;;;;;;16.40;14.68;;;16.00;99.90;;;;;;5035225;28;20382;-71
2022/09/04 01:34:41;;;;;;;20.48;16.13;;;16.00;99.90;;;;;;5034904;28;20099;-71
2022/09/04 01:37:25;;;;;;;20.70;15.90;;;16.00;99.90;;;;;;5035286;28;20550;-72
2022/09/04 01:40:02;;;;;;;19.27;14.95;;;16.00;99.90;;;;;;5035032;28;20437;-72
2022/09/04 01:42:39;;;;;;;17.15;13.50;;;16.00;99.90;;;;;;5034654;28;20076;-72
2022/09/04 01:45:07;;;;;;;18.80;15.20;;;16.00;99.90;;;;;;5034887;28;20049;-71
2022/09/04 01:47:42;;;;;;;19.67;14.48;;;16.00;99.90;;;;;;5034964;28;20061;-71
2022/09/04 01:50:13;;;;;;;21.42;15.93;;;16.00;99.90;;;;;;5034815;28;20049;-71
2022/09/04 01:52:48;;;;;;;21.38;15.15;;;16.00;99.90;;;;;;5034655;28;20061;-71
2022/09/04 01:55:23;;;;;;;19.02;14.68;;;16.00;99.90;;;;;;5034633;28;20041;-71
2022/09/04 01:58:03;;;;;;;17.95;14.18;;;16.00;99.90;;;;;;5034735;28;20041;-70
2022/09/04 02:00:37;;;;;;;24.85;14.55;;;16.00;99.90;;;;;;5034765;28;20080;-71
2022/09/04 02:03:13;;;;;;;16.73;14.43;;;16.00;99.90;;;;;;5034331;28;20076;-72
2022/09/04 02:05:53;;;;;;;18.88;14.48;;;16.00;99.90;;;;;;5034493;28;20076;-73
2022/09/04 02:08:35;;;;;;;18.75;14.48;;;16.00;99.90;;;;;;5034838;28;20046;-71
2022/09/04 02:11:07;;;;;;;22.10;14.52;;;16.00;99.90;;;;;;5034624;28;20041;-71
2022/09/04 02:13:52;;;;;;;21.20;15.52;;;16.00;99.90;;;;;;5034150;28;20047;-72
2022/09/04 02:16:29;;;;;;;21.35;13.98;;;15.90;99.90;;;;;;5034352;28;20050;-72
2022/09/04 02:19:06;;;;;;;18.55;15.10;;;15.90;99.90;;;;;;5034448;28;20057;-71
2022/09/04 02:21:37;;;;;;;18.52;14.05;;;15.90;99.90;;;;;;5034161;28;20072;-71
2022/09/04 02:24:11;;;;;;;19.10;15.45;;;15.90;99.90;;;;;;5034048;28;20501;-72
2022/09/04 02:26:46;;;;;;;18.38;15.05;;;15.90;99.90;;;;;;5033998;28;20124;-72
2022/09/04 02:29:24;;;;;;;18.90;14.70;;;15.90;99.90;;;;;;5034046;28;20068;-72
2022/09/04 02:31:57;;;;;;;20.92;15.02;;;15.90;99.90;;;;;;5034047;28;20049;-71
2022/09/04 02:34:33;;;;;;;23.08;14.63;;;15.90;99.90;;;;;;5033991;28;20045;-71
2022/09/04 02:37:08;;;;;;;19.30;14.60;;;15.90;99.90;;;;;;5033932;28;20134;-72
2022/09/04 02:39:46;;;;;;;18.63;13.98;;;15.90;99.90;;;;;;5034079;28;20056;-71
2022/09/04 02:42:23;;;;;;;18.85;13.23;;;15.90;99.90;;;;;;5033768;28;20520;-71
2022/09/04 02:45:05;;;;;;;21.73;13.98;;;15.90;99.90;;;;;;5033896;28;20080;-71
2022/09/04 02:47:39;;;;;;;17.48;13.57;;;15.90;99.90;;;;;;5033698;28;20364;-71
2022/09/04 02:50:14;;;;;;;15.93;13.93;;;15.90;99.90;;;;;;5033813;28;20033;-71
2022/09/04 02:53:00;;;;;;;22.33;15.50;;;15.90;99.90;;;;;;5033528;28;20038;-72
2022/09/04 02:55:45;;;;;;;16.33;12.93;;;15.90;99.90;;;;;;5033096;28;20417;-71
2022/09/04 02:58:21;;;;;;;17.17;14.25;;;15.90;99.90;;;;;;5033645;28;20068;-71
2022/09/04 03:01:02;;;;;;;23.98;14.45;;;15.90;99.90;;;;;;5033695;28;20045;-72
2022/09/04 03:03:37;;;;;;;19.65;14.98;;;15.90;99.90;;;;;;5033371;28;20051;-71
2022/09/04 03:06:10;;;;;;;19.48;13.68;;;15.90;99.90;;;;;;5033724;28;20075;-72
2022/09/04 03:08:46;;;;;;;19.30;14.30;;;15.90;99.90;;;;;;5033584;28;20046;-71
2022/09/04 03:11:18;;;;;;;17.73;14.38;;;15.90;99.90;;;;;;5033326;28;20492;-71
2022/09/04 03:13:53;;;;;;;22.98;15.15;;;15.90;99.90;;;;;;5033546;28;20080;-72
2022/09/04 03:16:27;;;;;;;20.60;14.55;;;15.90;99.90;;;;;;5034465;28;20144;-72
2022/09/04 03:19:10;;;;;;;20.40;14.80;;;15.90;99.90;;;;;;5034824;28;20107;-72
2022/09/04 03:21:43;;;;;;;24.77;14.95;;;15.90;99.90;;;;;;5033719;28;20041;-72
2022/09/04 03:24:17;;;;;;;22.67;14.60;;;15.90;99.90;;;;;;5033920;28;20068;-71
2022/09/04 03:26:49;;;;;;;20.25;14.30;;;15.90;99.90;;;;;;5034856;28;20513;-71
2022/09/04 03:29:26;;;;;;;20.33;15.00;;;15.80;99.90;;;;;;5033855;28;20050;-72
2022/09/04 03:32:05;;;;;;;19.80;15.10;;;15.90;99.90;;;;;;5034621;28;20095;-71
2022/09/04 03:34:49;;;;;;;20.98;14.63;;;15.80;99.90;;;;;;5039475;28;20470;-72
2022/09/04 03:37:40;;;;;;;20.80;14.77;;;15.80;99.90;;;;;;5035581;28;20041;-72
2022/09/04 03:40:35;;;;;;;22.30;14.77;;;15.80;99.90;;;;;;5046522;28;20037;-71
2022/09/04 03:43:25;;;;;;;17.98;14.35;;;15.80;99.90;;;;;;5054041;28;20412;-73
2022/09/04 03:46:00;;;;;;;21.20;14.02;;;15.80;99.90;;;;;;5052804;28;20052;-72
2022/09/04 03:48:41;;;;;;;16.27;14.07;;;15.80;99.90;;;;;;5050259;28;20042;-72
2022/09/04 03:51:19;;;;;;;18.27;14.27;;;15.70;99.90;;;;;;5037936;28;20103;-73
2022/09/04 03:53:56;;;;;;;23.60;15.32;;;15.70;99.90;;;;;;5033131;28;20041;-73
2022/09/04 03:56:44;;;;;;;19.52;14.88;;;15.70;99.90;;;;;;5033113;28;20522;-73
2022/09/04 03:59:20;;;;;;;18.23;14.50;;;15.80;99.90;;;;;;5033031;28;20076;-73
2022/09/04 04:01:54;;;;;;;16.65;14.23;;;15.80;99.90;;;;;;5033261;28;20500;-73
2022/09/04 04:04:45;;;;;;;15.70;14.05;;;15.80;99.90;;;;;;5032923;28;20061;-72
2022/09/04 04:07:22;;;;;;;23.40;14.40;;;15.80;99.90;;;;;;5035764;28;20042;-74
2022/09/04 04:10:13;;;;;;;21.63;14.18;;;15.80;99.90;;;;;;5041015;28;20041;-73
2022/09/04 04:13:11;;;;;;;18.00;14.45;;;15.80;99.90;;;;;;5041821;28;20049;-73
2022/09/04 04:16:02;;;;;;;16.45;14.75;;;15.80;99.90;;;;;;5036735;28;20046;-73
2022/09/04 04:18:42;;;;;;;23.85;14.55;;;15.70;99.90;;;;;;5036801;28;20501;-73
2022/09/04 04:21:19;;;;;;;16.55;14.60;;;15.70;99.90;;;;;;5036437;28;20077;-73
2022/09/04 04:24:03;;;;;;;18.70;14.75;;;15.80;99.90;;;;;;5036465;28;20163;-73
2022/09/04 04:26:40;;;;;;;18.25;13.80;;;15.80;99.90;;;;;;5036663;28;20053;-73
2022/09/04 04:29:39;;;;;;;15.20;13.57;;;15.80;99.90;;;;;;5036482;28;20504;-73
2022/09/04 04:32:23;;;;;;;19.98;14.52;;;15.80;99.90;;;;;;5036357;28;20107;-73
2022/09/04 04:35:03;;;;;;;19.25;14.70;;;15.90;99.90;;;;;;5036467;28;20492;-74
2022/09/04 04:37:42;;;;;;;18.30;13.65;;;15.90;99.90;;;;;;5036315;28;20049;-74
2022/09/04 04:40:20;;;;;;;20.55;14.20;;;15.90;99.90;;;;;;5036222;28;20069;-73
2022/09/04 04:42:55;;;;;;;15.57;13.63;;;16.00;99.90;;;;;;5035728;28;20054;-73
2022/09/04 04:48:53;;;;;;;18.58;13.52;;;16.10;99.90;;;;;;5036028;28;20083;-73
2022/09/04 04:51:47;;;;;;;20.60;14.85;;;16.20;99.90;;;;;;5038511;28;20469;-74
2022/09/04 04:54:30;;;;;;;24.95;14.27;;;16.30;99.90;;;;;;5044684;28;20053;-74
2022/09/04 04:57:04;;;;;;;22.92;15.73;;;16.30;99.90;;;;;;5043923;28;20041;-74
2022/09/04 04:59:43;;;;;;;31.40;16.23;;;16.40;99.90;;;;;;5038889;28;20065;-73
2022/09/04 05:02:21;;;;;;;17.50;14.85;;;16.40;99.90;;;;;;5035813;28;20488;-75
2022/09/04 05:04:56;;;;;;;21.55;14.38;;;16.40;99.90;;;;;;5035559;28;20068;-75
2022/09/04 05:07:33;;;;;;;20.98;14.50;;;16.30;99.90;;;;;;5035874;28;20421;-74
2022/09/04 05:10:10;;;;;;;20.15;15.10;;;16.30;99.90;;;;;;5035938;28;20042;-75
2022/09/04 05:12:54;;;;;;;21.02;17.00;;;16.30;99.90;;;;;;5035420;28;20563;-74
2022/09/04 05:15:29;;;;;;;24.67;17.52;;;16.30;99.90;;;;;;5035805;28;20120;-75
2022/09/04 05:18:03;;;;;;;32.33;20.73;;;16.30;99.90;;;;;;5017748;28;20100;-75
2022/09/04 05:20:39;;;;;;;24.33;16.83;;;16.40;99.90;;;;;;5035868;28;20503;-74
2022/09/04 05:23:13;;;;;;;;;;;16.40;99.90;;;;;;5035644;28;20045;-74
2022/09/04 05:25:50;;;;;;;17.05;14.65;;;16.30;99.90;;;;;;5035482;28;19947;-73
2022/09/04 05:28:28;;;;;;;30.60;16.30;;;16.30;99.90;;;;;;5035588;28;20115;-73
2022/09/04 05:31:05;;;;;;;22.95;16.67;;;16.30;99.90;;;;;;5035100;28;20049;-74
2022/09/04 05:33:40;;;;;;;29.30;17.98;;;16.30;99.90;;;;;;5035268;28;20068;-75
2022/09/04 05:36:17;;;;;;;23.90;16.70;;;16.40;99.90;;;;;;5035114;28;20087;-74
2022/09/04 05:38:54;;;;;;;25.50;16.73;;;16.50;99.90;;;;;;5017411;28;20057;-75
2022/09/04 05:41:36;;;;;;;24.92;18.48;;;16.50;99.90;;;;;;5035104;28;20073;-75
2022/09/04 05:44:30;;;;;;;24.73;16.73;;;16.60;99.90;;;;;;5035152;28;20045;-75
2022/09/04 05:47:08;;;;;;;24.88;17.13;;;16.60;99.90;;;;;;5035264;28;20050;-75
2022/09/04 05:49:54;;;;;;;21.02;16.27;;;16.60;99.90;;;;;;5035124;28;20049;-75
2022/09/04 05:52:47;;;;;;;24.15;16.50;;;16.60;99.90;;;;;;5035352;28;20558;-74
2022/09/04 05:56:01;;;;;;;20.88;17.00;;;16.70;99.90;;;;;;5035148;28;20068;-74
2022/09/04 05:58:57;;;;;;;22.17;16.95;;;16.60;99.90;;;;;;5004920;28;20500;-75
2022/09/04 06:01:52;;;;;;;22.30;15.63;;;16.60;99.90;;;;;;5033114;28;20057;-75
2022/09/04 06:04:40;;;;;;;20.48;16.95;;;16.70;99.90;;;;;;5034977;28;20045;-74
2022/09/04 06:07:12;;;;;;;24.92;17.75;;;16.70;99.90;;;;;;5034635;28;20052;-74
2022/09/04 06:10:06;;;;;;;20.88;16.40;;;16.80;99.90;;;;;;5035055;28;20121;-74
2022/09/04 06:13:12;;;;;;;21.70;15.75;;;16.80;99.90;;;;;;5034563;28;20481;-75
2022/09/04 06:15:51;;;;;;;25.70;20.83;;;16.80;99.90;;;;;;5009203;28;20107;-75
2022/09/04 06:18:44;;;;;;;29.35;20.58;;;16.70;99.90;;;;;;5034411;28;20049;-75
2022/09/04 06:21:37;;;;;;;24.10;17.67;;;16.80;99.90;;;;;;5034570;28;20460;-75
2022/09/04 06:24:23;;;;;;;24.00;19.77;;;16.90;99.90;;;;;;5035726;28;20041;-75
2022/09/04 06:27:05;;;;;;;29.77;20.75;;;16.90;99.90;;;;;;5035250;28;20053;-75
2022/09/04 06:29:53;;;;;;;30.13;23.75;;;17.10;99.90;;;;;;5016733;28;20051;-75
2022/09/04 06:32:41;;;;;;;29.92;23.02;;;17.20;99.90;;;;;;5033491;28;20149;-74
2022/09/04 06:35:35;;;;;;;25.35;19.50;;;17.40;99.90;;;;;;5034408;28;20068;-74
2022/09/04 06:38:16;;;;;;;24.05;16.25;;;17.50;99.90;;;;;;5035095;28;20040;-74
2022/09/04 06:40:58;;;;;;;22.52;16.90;;;17.70;99.90;;;;;;5034869;28;20183;-73
2022/09/04 06:43:36;;;;;;;20.45;15.43;;;18.10;99.90;;;;;;5033859;28;20121;-74
2022/09/04 06:46:15;;;;;;;18.75;15.48;;;18.10;99.90;;;;;;5034382;28;20041;-72
2022/09/04 06:48:56;;;;;;;21.83;16.08;;;18.20;99.90;;;;;;5034335;28;20465;-73
2022/09/04 06:51:47;;;;;;;25.35;19.45;;;18.20;99.90;;;;;;5034024;28;20566;-73
2022/09/04 06:54:24;;;;;;;20.98;13.65;;;18.20;99.90;;;;;;5033619;28;20046;-72
2022/09/04 06:57:07;;;;;;;17.50;12.82;;;18.40;99.90;;;;;;5034432;28;20046;-72
2022/09/04 06:59:47;;;;;;;18.85;13.02;;;18.20;99.90;;;;;;5015953;28;20046;-72
2022/09/04 07:02:30;;;;;;;18.58;13.90;;;18.20;99.90;;;;;;5033653;28;20041;-73
2022/09/04 07:05:08;;;;;;;27.25;16.60;;;18.40;99.90;;;;;;5016459;28;20053;-73
2022/09/04 07:07:45;;;;;;;35.63;16.70;;;18.50;99.90;;;;;;5034771;28;20460;-72
2022/09/04 07:10:17;;;;;;;19.50;15.18;;;18.60;99.90;;;;;;5034251;28;20042;-72
2022/09/04 07:13:16;;;;;;;16.65;13.60;;;18.60;99.90;;;;;;5033968;28;20049;-73
2022/09/04 07:16:05;;;;;;;29.02;17.45;;;18.70;99.90;;;;;;5033886;28;20452;-72
2022/09/04 07:19:06;;;;;;;19.98;14.13;;;18.70;99.90;;;;;;5033869;28;20397;-72
2022/09/04 07:21:48;;;;;;;17.85;13.15;;;18.70;99.90;;;;;;5029444;28;20081;-73
2022/09/04 07:24:46;;;;;;;23.42;14.55;;;18.60;99.90;;;;;;5033544;28;20067;-74
2022/09/04 07:27:20;;;;;;;23.92;14.07;;;18.60;99.90;;;;;;5033742;28;20444;-74
2022/09/04 07:29:54;;;;;;;22.45;14.10;;;18.70;99.90;;;;;;5016023;28;20047;-72
2022/09/04 07:32:24;;;;;;;18.50;13.48;;;18.80;99.90;;;;;;5034259;28;20068;-73
2022/09/04 07:34:59;;;;;;;100.00;28.05;;;18.90;99.90;;;;;;5015455;28;20136;-72
2022/09/04 07:37:38;;;;;;;23.98;15.57;;;19.00;99.90;;;;;;5015833;28;20054;-72
2022/09/04 07:40:11;;;;;;;32.63;19.52;;;19.10;99.90;;;;;;5034148;28;20114;-73
2022/09/04 07:42:45;;;;;;;23.85;18.35;;;19.20;99.90;;;;;;5035587;28;20103;-72
2022/09/04 07:45:29;;;;;;;41.78;24.15;;;19.20;99.90;;;;;;5037928;28;20120;-72
2022/09/04 07:48:09;;;;;;;84.43;28.17;;;19.20;99.90;;;;;;5038525;28;20045;-75
2022/09/04 07:50:39;;;;;;;38.28;20.42;;;19.30;99.90;;;;;;5041216;28;20432;-71
2022/09/04 07:53:24;;;;;;;35.53;18.33;;;19.30;99.90;;;;;;5042405;28;20045;-72
2022/09/04 07:55:57;;;;;;;21.15;16.38;;;19.50;99.90;;;;;;5037251;28;20045;-72
2022/09/04 07:58:51;;;;;;;23.80;17.52;;;19.50;99.90;;;;;;5036971;28;20334;-73
2022/09/04 08:01:47;;;;;;;22.67;16.27;;;19.50;99.90;;;;;;5019939;28;20093;-72
2022/09/04 08:04:36;;;;;;;17.35;15.43;;;19.50;99.90;;;;;;5026319;28;20111;-73
2022/09/04 08:07:07;;;;;;;22.30;16.17;;;19.60;99.90;;;;;;5037539;28;20045;-72
2022/09/04 08:09:52;;;;;;;20.95;14.55;;;19.70;99.90;;;;;;5038058;28;20044;-71
2022/09/04 08:12:47;;;;;;;20.15;15.23;;;19.70;99.90;;;;;;5037320;28;20037;-72
2022/09/04 08:15:20;;;;;;;26.65;15.98;;;19.80;99.90;;;;;;5031410;28;20057;-71
2022/09/04 08:18:28;;;;;;;1090.32;247.50;;;20.10;99.90;;;;;;5037315;28;20121;-71
2022/09/04 08:21:05;;;;;;;24.92;15.40;;;20.40;99.90;;;;;;4990280;28;20045;-71
2022/09/04 08:23:58;;;;;;;20.42;15.45;;;20.60;99.90;;;;;;5037677;28;20053;-72
2022/09/04 08:26:37;;;;;;;23.40;17.50;;;20.80;99.90;;;;;;5036991;28;20076;-74
2022/09/04 08:29:25;;;;;;;32.30;18.80;;;21.00;99.90;;;;;;5036682;28;20060;-73
2022/09/04 08:32:08;;;;;;;25.40;15.18;;;21.30;99.90;;;;;;5036195;28;20092;-72
2022/09/04 08:34:59;;;;;;;29.73;20.63;;;21.40;99.90;;;;;;5036264;28;20047;-72
2022/09/04 08:37:28;;;;;;;20.25;15.30;;;21.60;99.90;;;;;;5036776;28;20049;-73
2022/09/04 08:40:19;;;;;;;22.15;16.73;;;21.80;99.90;;;;;;5036372;28;20037;-74
2022/09/04 08:43:18;;;;;;;21.00;14.30;;;21.90;99.90;;;;;;5017760;28;20076;-74
2022/09/04 08:46:20;;;;;;;22.50;17.58;;;21.90;99.90;;;;;;5016228;28;20041;-73
2022/09/04 08:49:29;;;;;;;21.02;15.70;;;22.00;99.90;;;;;;5036574;28;20048;-72
2022/09/04 08:52:30;;;;;;;30.85;16.55;;;22.00;99.90;;;;;;4999148;28;20049;-74
2022/09/04 08:55:30;;;;;;;23.58;15.60;;;22.10;99.90;;;;;;5037068;28;20576;-74
2022/09/04 08:58:29;;;;;;;21.10;14.45;;;22.10;99.90;;;;;;5013332;28;20061;-73
2022/09/04 09:01:19;;;;;;;19.48;14.75;;;22.20;99.90;;;;;;5021343;28;20484;-73
2022/09/04 09:04:29;;;;;;;21.30;15.88;;;22.30;99.90;;;;;;5038766;28;20073;-73
2022/09/04 09:07:34;;;;;;;21.15;15.30;;;22.50;99.90;;;;;;5038589;28;20045;-73
2022/09/04 09:10:36;;;;;;;20.42;14.98;;;22.70;99.90;;;;;;4989672;28;20057;-73
2022/09/04 09:13:42;;;;;;;17.30;13.20;;;23.00;99.90;;;;;;5036538;28;20045;-73
2022/09/04 09:16:21;;;;;;;19.98;14.48;;;23.20;99.90;;;;;;5019171;28;20057;-73
2022/09/04 09:19:09;;;;;;;26.27;15.35;;;23.30;99.90;;;;;;5036729;28;20037;-73
2022/09/04 09:21:44;;;;;;;17.48;14.18;;;23.40;99.90;;;;;;5036218;28;20061;-74
2022/09/04 09:24:37;;;;;;;18.83;13.13;;;23.40;99.90;;;;;;5036019;28;20504;-73
2022/09/04 09:27:25;;;;;;;18.67;13.10;;;23.40;99.90;;;;;;5038204;28;20056;-74
2022/09/04 09:30:06;;;;;;;20.60;13.48;;;23.60;99.90;;;;;;5039762;28;20095;-73
2022/09/04 09:33:13;;;;;;;18.58;12.85;;;23.70;99.90;;;;;;5042110;28;20038;-73
2022/09/04 09:36:25;;;;;;;21.27;14.68;;;23.60;1.00;;;;;;5042455;28;20555;-73
2022/09/04 09:39:14;;;;;;;19.52;13.80;;;23.60;2.50;;;;;;5024943;28;20501;-73
2022/09/04 09:42:22;;;;;;;17.58;12.13;;;23.70;1.00;;;;;;5022661;28;20045;-73
2022/09/04 09:45:17;;;;;;;18.38;14.20;;;23.90;1.00;;;;;;5010465;28;20049;-74
2022/09/04 09:48:29;;;;;;;18.95;12.90;;;24.00;99.90;;;;;;5034006;28;20467;-73
2022/09/04 09:54:25;;;;;;;33.05;13.77;;;24.10;99.90;;;;;;5111563;27;20388;-74
2022/09/04 09:57:26;;;;;;;75.20;18.92;;;24.60;99.90;;;;;;5090973;28;20052;-72
2022/09/04 10:00:13;;;;;;;22.00;13.45;;;24.90;1.00;;;;;;5090772;28;20520;-73
2022/09/04 10:03:26;;;;;;;16.67;12.30;;;25.00;99.90;;;;;;5090634;28;20044;-73
2022/09/04 10:06:28;;;;;;;17.80;12.80;;;25.00;1.00;;;;;;5090828;28;20048;-73
2022/09/04 10:09:48;;;;;;;18.50;13.35;;;24.60;99.90;;;;;;5090577;28;20047;-73
2022/09/04 10:12:42;;;;;;;18.35;12.82;;;24.60;1.00;;;;;;5090529;28;20449;-73
2022/09/04 10:15:54;;;;;;;21.23;12.48;;;24.70;99.90;;;;;;5090399;28;20407;-73
2022/09/04 10:18:55;;;;;;;26.23;14.00;;;24.70;1.00;;;;;;5033401;28;20428;-73
2022/09/04 10:21:50;;;;;;;17.92;12.15;;;24.70;1.00;;;;;;5090602;28;20395;-73
2022/09/04 10:24:35;;;;;;;22.75;13.88;;;24.60;99.90;;;;;;5089852;28;20106;-73
2022/09/04 10:27:43;;;;;;;20.48;14.18;;;24.40;99.90;;;;;;5090298;28;20059;-72
2022/09/04 10:30:14;;;;;;;16.40;13.07;;;24.50;1.00;;;;;;5089771;28;20048;-72
2022/09/04 10:33:32;;;;;;;16.30;11.30;;;24.50;99.90;;;;;;5089813;28;20036;-72
2022/09/04 10:36:19;;;;;;;13.82;10.27;;;24.50;1.00;;;;;;5041203;28;20486;-73
2022/09/04 10:42:02;;;;;;;19.80;11.63;;;24.60;99.90;;;;;;5088471;28;20173;-73
2022/09/04 10:45:02;;;;;;;13.45;10.68;;;24.50;1.00;;;;;;5089534;28;20113;-73
2022/09/04 10:47:44;;;;;;;28.08;13.75;;;24.20;99.90;;;;;;5089875;28;20086;-74
2022/09/04 10:50:42;;;;;;;14.48;10.63;;;24.00;1.00;;;;;;5090106;28;20066;-74
2022/09/04 10:53:35;;;;;;;23.73;12.32;;;24.30;99.90;;;;;;5089473;28;20072;-74
2022/09/04 10:56:17;;;;;;;33.42;12.52;;;24.50;1.00;;;;;;5089531;28;20048;-73
2022/09/04 10:59:21;;;;;;;18.83;10.93;;;24.50;1.00;;;;;;5089954;28;20485;-74
2022/09/04 11:02:23;;;;;;;17.20;11.30;;;24.70;1.00;;;;;;5050719;28;20060;-74
2022/09/04 11:05:19;;;;;;;23.90;12.15;;;24.80;1.00;;;;;;5077768;28;20047;-73
2022/09/04 11:08:20;;;;;;;25.77;13.55;;;25.40;93.10;;;;;;5075645;28;20072;-73
2022/09/04 11:11:07;;;;;;;13.38;10.45;;;25.90;1.00;;;;;;5075651;28;20055;-73
2022/09/04 11:14:05;;;;;;;14.40;11.05;;;25.90;1.00;;;;;;5075281;28;20552;-73
2022/09/04 11:17:04;;;;;;;17.60;12.90;;;26.00;99.90;;;;;;5076687;28;20071;-73
2022/09/04 11:20:09;;;;;;;15.13;11.52;;;26.00;99.90;;;;;;5072233;28;20075;-74
2022/09/04 11:23:23;;;;;;;19.08;14.27;;;26.10;99.90;;;;;;5075267;28;20051;-73
2022/09/04 11:26:38;;;;;;;14.45;12.02;;;26.50;1.00;;;;;;5057300;28;20090;-73
2022/09/04 11:29:44;;;;;;;16.25;11.60;;;26.60;1.00;;;;;;5076091;28;20099;-72
2022/09/04 11:32:32;;;;;;;17.27;12.20;;;26.60;99.90;;;;;;5066375;28;20053;-73
2022/09/04 11:35:33;;;;;;;17.63;13.45;;;26.70;99.90;;;;;;5076374;28;20051;-71
2022/09/04 11:38:09;;;;;;;18.50;11.90;;;27.40;99.90;;;;;;5076367;28;20041;-72
2022/09/04 11:41:23;;;;;;;17.65;12.45;;;27.90;99.90;;;;;;5075890;28;20110;-73
2022/09/04 11:44:14;;;;;;;18.08;13.55;;;28.20;1.00;;;;;;5074952;28;20119;-72
2022/09/04 11:47:30;;;;;;;16.38;12.70;;;28.50;1.00;;;;;;5073826;28;20146;-71
2022/09/04 11:50:30;;;;;;;16.35;12.52;;;28.30;1.00;;;;;;5057050;28;20064;-72
2022/09/04 11:53:18;;;;;;;17.73;12.98;;;28.10;99.90;;;;;;5074562;28;20048;-72
2022/09/04 11:56:15;;;;;;;13.27;10.13;;;28.00;1.00;;;;;;5073887;28;20047;-72
2022/09/04 11:59:04;;;;;;;11.40;8.30;;;27.20;1.00;;;;;;5074864;28;20041;-72
2022/09/04 12:02:03;;;;;;;11.80;9.65;;;26.10;99.90;;;;;;5074341;28;20220;-72
2022/09/04 12:04:43;;;;;;;14.10;10.13;;;25.60;1.00;;;;;;5074383;28;20045;-72
2022/09/04 12:07:25;;;;;;;12.38;9.65;;;24.90;1.00;;;;;;5074773;28;20037;-72
2022/09/04 12:10:17;;;;;;;10.18;7.90;;;24.90;1.00;;;;;;5074368;28;20037;-72
2022/09/04 12:13:01;;;;;;;22.58;14.50;;;24.80;1.00;;;;;;5074070;28;20036;-73
2022/09/04 12:16:00;;;;;;;9.35;7.13;;;24.50;1.00;;;;;;5072171;28;20094;-73
2022/09/04 12:18:54;;;;;;;11.98;8.02;;;24.30;1.00;;;;;;5074486;28;20052;-73
2022/09/04 12:21:46;;;;;;;13.82;8.48;;;24.10;1.00;;;;;;5069302;28;20048;-73
2022/09/04 12:24:57;;;;;;;13.43;8.20;;;23.60;99.90;;;;;;5074101;28;20041;-73
2022/09/04 12:28:10;;;;;;;10.18;7.90;;;23.40;1.00;;;;;;5072354;28;20094;-73
2022/09/04 12:30:53;;;;;;;10.70;7.13;;;23.00;69.20;;;;;;5074599;28;20427;-73
2022/09/04 12:33:52;;;;;;;12.68;8.40;;;22.80;1.00;;;;;;5073844;28;20086;-73
2022/09/04 12:36:50;;;;;;;18.13;12.60;;;22.70;1.00;;;;;;5072689;28;20064;-73
2022/09/04 12:39:59;;;;;;;14.15;11.32;;;22.70;1.00;;;;;;5073931;28;20497;-73
2022/09/04 12:42:32;;;;;;;17.33;13.30;;;22.90;80.10;;;;;;5037859;28;20048;-73
2022/09/04 12:45:14;;;;;;;16.60;12.88;;;23.00;1.00;;;;;;5073799;28;20514;-74
2022/09/04 12:47:56;;;;;;;15.00;11.27;;;23.10;1.00;;;;;;5072521;28;20072;-73
2022/09/04 12:50:35;;;;;;;16.35;13.05;;;23.20;99.90;;;;;;5072436;28;20098;-73
2022/09/04 12:53:29;;;;;;;16.98;12.38;;;23.20;1.00;;;;;;5073166;28;20048;-73
2022/09/04 12:56:09;;;;;;;17.38;12.70;;;23.10;1.00;;;;;;5065228;28;20255;-73
2022/09/04 12:59:01;;;;;;;21.30;14.88;;;22.90;1.00;;;;;;5074038;28;20044;-73
2022/09/04 13:01:43;;;;;;;18.50;12.95;;;22.90;1.00;;;;;;5073879;28;20507;-73
2022/09/04 13:04:20;;;;;;;19.95;15.35;;;22.90;1.00;;;;;;5073728;28;20098;-73
2022/09/04 13:07:00;;;;;;;18.70;13.60;;;23.10;1.00;;;;;;5073697;28;20041;-73
2022/09/04 13:09:40;;;;;;;22.85;16.60;;;23.30;1.00;;;;;;5073965;28;20094;-73
2022/09/04 13:12:19;;;;;;;20.73;16.73;;;23.40;1.00;;;;;;5073639;28;20044;-73
2022/09/04 13:15:03;;;;;;;21.35;18.95;;;23.50;1.00;;;;;;5073694;28;20102;-73
2022/09/04 13:17:42;;;;;;;21.63;18.98;;;23.60;1.00;;;;;;5073797;28;20040;-72
2022/09/04 13:20:19;;;;;;;23.60;18.40;;;23.60;1.00;;;;;;5073411;28;20060;-72
2022/09/04 13:23:03;;;;;;;21.58;17.40;;;23.60;1.00;;;;;;5073225;28;20488;-72
2022/09/04 13:25:41;;;;;;;22.92;18.58;;;23.30;1.00;;;;;;5073244;28;20067;-72
2022/09/04 13:28:18;;;;;;;21.58;18.25;;;23.30;1.00;;;;;;5073241;28;20090;-72
2022/09/04 13:30:52;;;;;;;21.27;18.73;;;23.20;1.00;;;;;;5073322;28;20514;-73
2022/09/04 13:33:38;;;;;;;25.10;19.60;;;23.00;1.00;;;;;;5072714;28;20037;-72
2022/09/04 13:36:25;;;;;;;22.38;18.80;;;22.90;1.00;;;;;;5073285;28;20044;-73
2022/09/04 13:39:16;;;;;;;23.58;19.95;;;23.10;1.00;;;;;;5072253;28;20048;-73
2022/09/04 13:42:19;;;;;;;23.55;18.45;;;23.10;63.40;;;;;;5071488;28;20048;-73
2022/09/04 13:45:05;;;;;;;22.52;20.05;;;23.20;96.70;;;;;;5072759;28;20044;-73
2022/09/04 13:47:41;;;;;;;22.05;19.75;;;23.20;99.90;;;;;;5072983;28;20040;-73
2022/09/04 13:50:17;;;;;;;22.58;20.17;;;23.20;99.90;;;;;;5073483;28;20044;-73
2022/09/04 13:52:50;;;;;;;23.33;20.13;;;23.20;99.90;;;;;;5072521;28;20086;-73
2022/09/04 13:55:22;;;;;;;25.45;22.23;;;23.20;99.90;;;;;;5072901;28;20123;-73
2022/09/04 13:57:57;;;;;;;24.15;21.50;;;23.20;99.90;;;;;;5072976;28;20036;-73
2022/09/04 14:00:24;;;;;;;23.50;20.67;;;23.20;99.90;;;;;;5072854;28;20519;-73
2022/09/04 14:02:59;;;;;;;26.60;23.48;;;23.20;99.90;;;;;;5071701;28;20045;-73
2022/09/04 14:05:29;;;;;;;27.45;21.05;;;23.20;99.90;;;;;;5074280;28;20044;-73
2022/09/04 14:08:02;;;;;;;29.23;25.58;;;23.40;99.90;;;;;;5074195;28;20045;-73
2022/09/04 14:10:57;;;;;;;24.88;22.10;;;23.50;99.90;;;;;;5073312;28;20496;-73